sim
Sign-in with your pilot id or email,
or register
Callsign
Passwort

Schedule Details

Flight Number: OEO6741
Departure: Washington Dulles International Airport (KIAD) at 23:30
Arrival: Munich Airport (EDDM) at 08:00

Weather Information
Getting current METAR information for KIAD 240652Z 00000KT 10SM BKN250 13/11 A2999 RMK AO2 SLP153 T01280111 $
Getting current METAR information for EDDM 240650Z 24003KT 210V300 9999 -RA FEW036 BKN080 13/12 Q1010 BECMG 26008KT

Schedule Frequency

Route Map